createdAt,value
2017-07-09T00:00:31.446Z,25.0
2017-07-09T00:01:39.535Z,25.0
2017-07-09T00:02:47.623Z,25.1
2017-07-09T00:03:55.715Z,25.1
2017-07-09T00:05:03.835Z,25.0
2017-07-09T00:06:11.893Z,25.0
2017-07-09T00:07:19.984Z,24.9
2017-07-09T00:08:28.073Z,25.1
2017-07-09T00:09:36.160Z,25.0
2017-07-09T00:10:44.251Z,25.0
2017-07-09T00:11:52.340Z,24.9
2017-07-09T00:13:00.429Z,25.0
2017-07-09T00:14:08.519Z,24.9
2017-07-09T00:15:16.609Z,24.9
2017-07-09T00:16:24.699Z,25.0
2017-07-09T00:17:32.787Z,25.0
2017-07-09T00:18:40.879Z,25.0
2017-07-09T00:19:48.965Z,25.0
2017-07-09T00:20:57.058Z,24.9
2017-07-09T00:22:05.154Z,25.0
2017-07-09T00:23:13.236Z,24.9
2017-07-09T00:24:21.325Z,24.9
2017-07-09T00:25:29.415Z,24.9
2017-07-09T00:26:37.506Z,24.9
2017-07-09T00:27:45.594Z,25.0
2017-07-09T00:28:53.684Z,24.9
2017-07-09T00:30:01.769Z,25.0
2017-07-09T00:31:09.859Z,24.9
2017-07-09T00:32:17.950Z,24.9
2017-07-09T00:33:26.040Z,25.0
2017-07-09T00:34:34.132Z,24.9
2017-07-09T00:35:42.219Z,24.9
2017-07-09T00:36:50.308Z,25.0
2017-07-09T00:37:58.400Z,24.9
2017-07-09T00:39:06.501Z,24.9
2017-07-09T00:40:14.580Z,24.9
2017-07-09T00:41:22.667Z,24.9
2017-07-09T00:42:30.762Z,24.9
2017-07-09T00:43:38.847Z,24.9
2017-07-09T00:44:46.939Z,24.9
2017-07-09T00:45:55.026Z,24.9
2017-07-09T00:47:03.116Z,24.9
2017-07-09T00:48:11.207Z,24.9
2017-07-09T00:49:19.295Z,24.9
2017-07-09T00:50:27.382Z,25.0
2017-07-09T00:51:35.472Z,24.9
2017-07-09T00:52:43.573Z,24.8
2017-07-09T00:53:51.651Z,24.9
2017-07-09T00:54:59.741Z,24.9
2017-07-09T00:56:07.865Z,24.9
2017-07-09T00:57:15.922Z,24.9
2017-07-09T00:58:24.009Z,24.9
2017-07-09T00:59:32.101Z,24.9
2017-07-09T01:00:40.187Z,24.9
2017-07-09T01:01:48.280Z,24.9
2017-07-09T01:02:56.369Z,24.9
2017-07-09T01:04:04.458Z,24.9
2017-07-09T01:05:12.547Z,24.9
2017-07-09T01:06:20.636Z,24.8
2017-07-09T01:07:28.725Z,24.9
2017-07-09T01:08:36.816Z,24.9
2017-07-09T01:09:44.903Z,24.8
2017-07-09T01:10:52.993Z,24.9
2017-07-09T01:12:01.084Z,24.9
2017-07-09T01:13:09.269Z,24.8
2017-07-09T01:14:17.261Z,24.8
2017-07-09T01:15:25.355Z,24.8
2017-07-09T01:16:33.442Z,24.8
2017-07-09T01:17:41.531Z,24.8
2017-07-09T01:18:49.620Z,24.8
2017-07-09T01:19:57.709Z,24.9
2017-07-09T01:21:05.825Z,24.9
2017-07-09T01:22:13.890Z,24.8
2017-07-09T01:23:21.976Z,24.8
2017-07-09T01:24:30.068Z,24.9
2017-07-09T01:25:38.157Z,24.8
2017-07-09T01:26:46.246Z,24.8
2017-07-09T01:27:54.338Z,24.8
2017-07-09T01:29:02.425Z,24.7
2017-07-09T01:30:10.538Z,24.8
2017-07-09T01:31:18.604Z,24.8
2017-07-09T01:32:26.692Z,24.9
2017-07-09T01:33:34.783Z,24.8
2017-07-09T01:34:42.871Z,24.7
2017-07-09T01:35:50.964Z,24.8
2017-07-09T01:36:59.055Z,24.8
2017-07-09T01:38:07.142Z,24.8
2017-07-09T01:39:15.229Z,24.8
2017-07-09T01:40:23.319Z,24.8
2017-07-09T01:41:31.407Z,24.8
2017-07-09T01:42:39.498Z,24.8
2017-07-09T01:43:47.586Z,24.7
2017-07-09T01:44:55.681Z,24.7
2017-07-09T01:46:03.764Z,24.8
2017-07-09T01:47:11.925Z,24.8
2017-07-09T01:48:19.943Z,24.7
2017-07-09T01:49:28.151Z,24.8
2017-07-09T01:50:36.121Z,24.8
2017-07-09T01:51:44.213Z,24.7
2017-07-09T01:52:52.294Z,24.7
2017-07-09T01:54:00.384Z,24.8
2017-07-09T01:55:08.474Z,24.7
2017-07-09T01:56:16.563Z,24.7
2017-07-09T01:57:24.651Z,24.8
2017-07-09T01:58:32.740Z,24.7
2017-07-09T01:59:40.832Z,24.7
2017-07-09T02:00:48.921Z,24.6
2017-07-09T02:01:57.017Z,24.6
2017-07-09T02:03:05.105Z,24.7
2017-07-09T02:04:13.197Z,24.6
2017-07-09T02:05:21.291Z,24.8
2017-07-09T02:06:29.380Z,24.7
2017-07-09T02:07:37.471Z,24.7
2017-07-09T02:08:45.562Z,24.7
2017-07-09T02:09:53.658Z,24.6
2017-07-09T02:11:01.745Z,24.7
2017-07-09T02:12:09.833Z,24.7
2017-07-09T02:13:17.922Z,24.6
2017-07-09T02:14:26.009Z,24.6
2017-07-09T02:15:34.102Z,24.6
2017-07-09T02:16:42.190Z,24.7
2017-07-09T02:17:50.280Z,24.7
2017-07-09T02:18:58.369Z,24.6
2017-07-09T02:20:06.484Z,24.7
2017-07-09T02:21:14.550Z,24.7
2017-07-09T02:22:22.637Z,24.6
2017-07-09T02:23:30.726Z,24.6
2017-07-09T02:24:38.815Z,24.6
2017-07-09T02:25:46.929Z,24.6
2017-07-09T02:26:54.994Z,24.6
2017-07-09T02:28:03.083Z,24.6
2017-07-09T02:29:11.173Z,24.6
2017-07-09T02:30:19.263Z,24.6
2017-07-09T02:31:27.355Z,24.6
2017-07-09T02:32:35.443Z,24.6
2017-07-09T02:33:43.529Z,24.6
2017-07-09T02:34:51.620Z,24.6
2017-07-09T02:35:59.709Z,24.6
2017-07-09T02:37:07.799Z,24.6
2017-07-09T02:38:15.888Z,24.6
2017-07-09T02:39:23.979Z,24.7
2017-07-09T02:40:32.068Z,24.6
2017-07-09T02:41:40.155Z,24.6
2017-07-09T02:42:48.246Z,24.6
2017-07-09T02:43:56.332Z,24.6
2017-07-09T02:45:04.422Z,24.6
2017-07-09T02:46:12.512Z,24.6
2017-07-09T02:47:20.602Z,24.6
2017-07-09T02:48:28.691Z,24.6
2017-07-09T02:49:36.779Z,24.6
2017-07-09T02:50:44.869Z,24.6
2017-07-09T02:51:53.001Z,24.6
2017-07-09T02:53:01.046Z,24.6
2017-07-09T02:54:09.135Z,24.6
2017-07-09T02:55:17.226Z,24.6
2017-07-09T02:56:25.317Z,24.7
2017-07-09T02:57:33.406Z,24.6
2017-07-09T02:58:41.496Z,24.6
2017-07-09T02:59:49.588Z,24.6
2017-07-09T03:00:57.674Z,24.6
2017-07-09T03:02:05.771Z,24.6
2017-07-09T03:03:13.851Z,24.6
2017-07-09T03:04:21.939Z,24.6
2017-07-09T03:05:30.029Z,24.6
2017-07-09T03:06:38.118Z,24.6
2017-07-09T03:07:46.205Z,24.6
2017-07-09T03:08:54.302Z,24.6
2017-07-09T03:10:02.388Z,24.6
2017-07-09T03:11:10.483Z,24.6
2017-07-09T03:12:18.646Z,24.6
2017-07-09T03:13:26.734Z,24.6
2017-07-09T03:14:34.824Z,24.6
2017-07-09T03:15:42.914Z,24.6
2017-07-09T03:16:51.013Z,24.6
2017-07-09T03:17:59.092Z,24.6
2017-07-09T03:19:07.180Z,24.6
2017-07-09T03:20:15.271Z,24.6
2017-07-09T03:21:23.362Z,24.6
2017-07-09T03:22:31.449Z,24.6
2017-07-09T03:23:39.539Z,24.6
2017-07-09T03:24:47.628Z,24.6
2017-07-09T03:25:55.717Z,24.6
2017-07-09T03:27:03.807Z,24.6
2017-07-09T03:28:11.897Z,24.6
2017-07-09T03:29:19.983Z,24.6
2017-07-09T03:30:28.077Z,24.5
2017-07-09T03:31:36.165Z,24.6
2017-07-09T03:32:44.254Z,24.5
2017-07-09T03:33:52.340Z,24.5
2017-07-09T03:35:00.919Z,24.6
2017-07-09T03:36:08.518Z,24.6
2017-07-09T03:37:16.608Z,24.5
2017-07-09T03:38:24.700Z,24.5
2017-07-09T03:39:32.787Z,24.6
2017-07-09T03:40:40.878Z,24.6
2017-07-09T03:41:48.968Z,24.5
2017-07-09T03:42:57.055Z,24.5
2017-07-09T03:44:05.142Z,24.5
2017-07-09T03:45:13.232Z,24.5
2017-07-09T03:46:21.323Z,24.5
2017-07-09T03:47:29.411Z,24.4
2017-07-09T03:48:37.501Z,24.5
2017-07-09T03:49:45.614Z,24.5
2017-07-09T03:50:53.679Z,24.5
2017-07-09T03:52:01.768Z,24.5
2017-07-09T03:53:09.859Z,24.5
2017-07-09T03:54:17.946Z,24.5
2017-07-09T03:55:26.035Z,24.5
2017-07-09T03:56:34.125Z,24.5
2017-07-09T03:57:42.215Z,24.5
2017-07-09T03:58:50.302Z,24.5
2017-07-09T03:59:58.394Z,24.5
2017-07-09T04:01:06.506Z,24.5
2017-07-09T04:02:14.571Z,24.5
2017-07-09T04:03:22.662Z,24.5
2017-07-09T04:04:30.748Z,24.5
2017-07-09T04:05:38.838Z,24.5
2017-07-09T04:06:46.928Z,24.5
2017-07-09T04:07:55.019Z,24.4
2017-07-09T04:09:03.107Z,24.5
2017-07-09T04:10:11.198Z,24.5
2017-07-09T04:11:19.287Z,24.5
2017-07-09T04:12:27.377Z,24.5
2017-07-09T04:13:35.464Z,24.5
2017-07-09T04:14:43.555Z,24.5
2017-07-09T04:15:51.641Z,24.5
2017-07-09T04:16:59.732Z,24.5
2017-07-09T04:18:07.827Z,24.5
2017-07-09T04:19:15.922Z,24.5
2017-07-09T04:20:24.011Z,24.5
2017-07-09T04:21:32.100Z,24.5
2017-07-09T04:22:40.542Z,24.5
2017-07-09T04:23:48.311Z,24.5
2017-07-09T04:24:56.760Z,24.5
2017-07-09T04:26:04.459Z,24.5
2017-07-09T04:27:12.549Z,24.5
2017-07-09T04:28:20.635Z,24.5
2017-07-09T04:29:28.727Z,24.5
2017-07-09T04:30:36.816Z,24.5
2017-07-09T04:31:44.903Z,24.5
2017-07-09T04:32:52.992Z,24.4
2017-07-09T04:34:01.081Z,24.5
2017-07-09T04:35:09.190Z,24.5
2017-07-09T04:36:17.365Z,24.4
2017-07-09T04:37:25.505Z,24.5
2017-07-09T04:38:33.440Z,24.5
2017-07-09T04:39:42.154Z,24.5
2017-07-09T04:40:49.664Z,24.5
2017-07-09T04:41:57.710Z,24.6
2017-07-09T04:43:05.798Z,24.5
2017-07-09T04:44:14.002Z,24.5
2017-07-09T04:45:21.975Z,24.5
2017-07-09T04:46:30.193Z,24.4
2017-07-09T04:47:38.155Z,24.4
2017-07-09T04:48:46.246Z,24.5
2017-07-09T04:49:54.342Z,24.5
2017-07-09T04:51:02.731Z,24.4
2017-07-09T04:52:10.587Z,24.5
2017-07-09T04:53:18.995Z,24.4
2017-07-09T04:54:26.845Z,24.4
2017-07-09T04:55:34.783Z,24.5
2017-07-09T04:56:43.327Z,24.5
2017-07-09T04:57:51.614Z,24.3
2017-07-09T04:58:59.054Z,24.3
2017-07-09T05:00:07.146Z,24.3
2017-07-09T05:01:15.288Z,24.3
2017-07-09T05:02:23.786Z,24.4
2017-07-09T05:03:31.411Z,24.3
2017-07-09T05:04:40.063Z,24.3
2017-07-09T05:05:47.593Z,24.4
2017-07-09T05:06:55.801Z,24.4
2017-07-09T05:08:03.970Z,24.3
2017-07-09T05:09:12.399Z,24.4
2017-07-09T05:10:20.026Z,24.3
2017-07-09T05:11:28.082Z,24.4
2017-07-09T05:12:36.742Z,24.5
2017-07-09T05:13:44.605Z,24.5
2017-07-09T05:14:52.307Z,24.5
2017-07-09T05:16:00.955Z,24.5
2017-07-09T05:17:09.133Z,24.4
2017-07-09T05:18:16.571Z,24.4
2017-07-09T05:19:24.661Z,24.4
2017-07-09T05:20:32.840Z,24.4
2017-07-09T05:21:40.837Z,24.5
2017-07-09T05:22:48.929Z,24.5
2017-07-09T05:23:57.020Z,24.4
2017-07-09T05:25:05.107Z,24.4
2017-07-09T05:26:13.456Z,24.4
2017-07-09T05:27:21.614Z,24.4
2017-07-09T05:28:29.566Z,24.4
2017-07-09T05:29:37.465Z,24.4
2017-07-09T05:30:45.813Z,24.3
2017-07-09T05:31:54.007Z,24.4
2017-07-09T05:33:01.961Z,24.3
2017-07-09T05:34:09.946Z,24.3
2017-07-09T05:35:18.072Z,24.3
2017-07-09T05:36:26.115Z,24.4
2017-07-09T05:37:34.257Z,24.4
2017-07-09T05:38:42.488Z,24.5
2017-07-09T05:39:50.273Z,24.5
2017-07-09T05:40:58.633Z,24.4
2017-07-09T05:42:06.453Z,24.5
2017-07-09T05:43:14.732Z,24.4
2017-07-09T05:44:22.842Z,24.3
2017-07-09T05:45:30.953Z,24.4
2017-07-09T05:46:39.129Z,24.4
2017-07-09T05:47:47.083Z,24.4
2017-07-09T05:48:54.987Z,24.4
2017-07-09T05:50:03.287Z,24.4
2017-07-09T05:51:11.471Z,24.4
2017-07-09T05:52:19.886Z,24.4
2017-07-09T05:53:27.653Z,24.4
2017-07-09T05:54:35.689Z,24.4
2017-07-09T05:55:43.701Z,24.4
2017-07-09T05:56:51.609Z,24.4
2017-07-09T05:57:59.849Z,24.4
2017-07-09T05:59:08.078Z,24.4
2017-07-09T06:00:16.222Z,24.4
2017-07-09T06:01:24.199Z,24.4
2017-07-09T06:02:32.498Z,24.4
2017-07-09T06:03:40.415Z,24.4
2017-07-09T06:04:48.673Z,24.4
2017-07-09T06:05:56.682Z,24.3
2017-07-09T06:07:04.781Z,24.4
2017-07-09T06:08:12.987Z,24.4
2017-07-09T06:09:20.597Z,24.4
2017-07-09T06:10:28.966Z,24.4
2017-07-09T06:11:37.332Z,24.4
2017-07-09T06:12:45.152Z,24.4
2017-07-09T06:13:53.560Z,24.4
2017-07-09T06:15:01.478Z,24.4
2017-07-09T06:16:09.131Z,24.3
2017-07-09T06:17:17.671Z,24.4
2017-07-09T06:18:25.316Z,24.4
2017-07-09T06:19:33.405Z,24.4
2017-07-09T06:20:41.493Z,24.4
2017-07-09T06:21:49.664Z,24.4
2017-07-09T06:22:57.685Z,24.4
2017-07-09T06:24:05.887Z,24.4
2017-07-09T06:25:13.963Z,24.4
2017-07-09T06:26:22.428Z,24.4
2017-07-09T06:27:30.043Z,24.4
2017-07-09T06:28:38.132Z,24.4
2017-07-09T06:29:46.222Z,24.3
2017-07-09T06:30:54.854Z,24.3
2017-07-09T06:32:02.480Z,24.4
2017-07-09T06:33:10.574Z,24.4
2017-07-09T06:34:18.654Z,24.4
2017-07-09T06:35:26.845Z,24.4
2017-07-09T06:36:35.018Z,24.4
2017-07-09T06:37:43.073Z,24.4
2017-07-09T06:38:51.281Z,24.4
2017-07-09T06:39:59.335Z,24.4
2017-07-09T06:41:07.113Z,24.4
2017-07-09T06:42:15.202Z,24.4
2017-07-09T06:43:23.338Z,24.4
2017-07-09T06:44:31.387Z,24.4
2017-07-09T06:45:39.994Z,24.4
2017-07-09T06:46:47.880Z,24.4
2017-07-09T06:47:55.656Z,24.4
2017-07-09T06:49:03.742Z,24.4
2017-07-09T06:50:11.836Z,24.4
2017-07-09T06:51:20.323Z,24.5
2017-07-09T06:52:28.154Z,24.4
2017-07-09T06:53:36.433Z,24.4
2017-07-09T06:54:44.187Z,24.4
2017-07-09T06:55:52.277Z,24.4
2017-07-09T06:57:00.367Z,24.4
2017-07-09T06:58:08.460Z,24.4
2017-07-09T06:59:16.549Z,24.4
2017-07-09T07:00:24.639Z,24.4
2017-07-09T07:01:32.726Z,24.4
2017-07-09T07:02:40.882Z,24.3
2017-07-09T07:03:48.907Z,24.4
2017-07-09T07:04:56.997Z,24.4
2017-07-09T07:06:05.087Z,24.4
2017-07-09T07:07:13.176Z,24.3
2017-07-09T07:08:21.271Z,24.4
2017-07-09T07:09:29.358Z,24.3
2017-07-09T07:10:37.450Z,24.4
2017-07-09T07:11:45.539Z,24.4
2017-07-09T07:12:53.626Z,24.3
2017-07-09T07:14:01.717Z,24.3
2017-07-09T07:15:09.808Z,24.5
2017-07-09T07:16:17.895Z,24.4
2017-07-09T07:17:25.985Z,24.3
2017-07-09T07:18:34.071Z,24.5
2017-07-09T07:19:42.161Z,24.5
2017-07-09T07:20:50.252Z,24.3
2017-07-09T07:21:58.340Z,24.4
2017-07-09T07:23:06.439Z,24.4
2017-07-09T07:24:14.521Z,24.4
2017-07-09T07:25:22.610Z,24.5
2017-07-09T07:26:30.698Z,24.4
2017-07-09T07:27:38.787Z,24.5
2017-07-09T07:28:46.874Z,24.4
2017-07-09T07:29:54.965Z,24.5
2017-07-09T07:31:03.054Z,24.5
2017-07-09T07:32:11.151Z,24.4
2017-07-09T07:33:19.242Z,24.5
2017-07-09T07:34:27.329Z,24.5
2017-07-09T07:35:35.418Z,24.5
2017-07-09T07:36:43.532Z,24.5
2017-07-09T07:37:51.606Z,24.5
2017-07-09T07:38:59.693Z,24.5
2017-07-09T07:40:07.790Z,24.5
2017-07-09T07:41:15.874Z,24.5
2017-07-09T07:42:23.964Z,24.6
2017-07-09T07:43:32.053Z,24.5
2017-07-09T07:44:40.140Z,24.5
2017-07-09T07:45:48.230Z,24.5
2017-07-09T07:46:56.318Z,24.5
2017-07-09T07:48:04.408Z,24.5
2017-07-09T07:49:12.499Z,24.6
2017-07-09T07:50:20.587Z,24.6
2017-07-09T07:51:28.677Z,24.6
2017-07-09T07:52:36.765Z,24.6
2017-07-09T07:53:44.908Z,24.6
2017-07-09T07:54:52.949Z,24.6
2017-07-09T07:56:01.031Z,24.6
2017-07-09T07:57:09.123Z,24.6
2017-07-09T07:58:17.212Z,24.6
2017-07-09T07:59:25.358Z,24.6
2017-07-09T08:00:33.389Z,24.6
2017-07-09T08:01:41.479Z,24.6
2017-07-09T08:02:49.568Z,24.6
2017-07-09T08:03:57.657Z,24.7
2017-07-09T08:05:05.747Z,24.6
2017-07-09T08:06:13.837Z,24.6
2017-07-09T08:07:21.926Z,24.6
2017-07-09T08:08:30.016Z,24.7
2017-07-09T08:09:38.106Z,24.7
2017-07-09T08:10:46.197Z,24.6
2017-07-09T08:11:54.287Z,24.6
2017-07-09T08:13:02.376Z,24.6
2017-07-09T08:14:10.464Z,24.6
2017-07-09T08:15:18.551Z,24.6
2017-07-09T08:16:26.646Z,24.6
2017-07-09T08:17:34.735Z,24.7
2017-07-09T08:18:42.824Z,24.6
2017-07-09T08:19:50.912Z,24.7
2017-07-09T08:20:59.004Z,24.7
2017-07-09T08:22:07.090Z,24.6
2017-07-09T08:23:15.182Z,24.7
2017-07-09T08:24:23.270Z,24.7
2017-07-09T08:25:31.361Z,24.7
2017-07-09T08:26:39.450Z,24.7
2017-07-09T08:27:47.563Z,24.7
2017-07-09T08:28:55.628Z,24.7
2017-07-09T08:30:03.718Z,24.7
2017-07-09T08:31:11.810Z,24.8
2017-07-09T08:32:19.897Z,24.8
2017-07-09T08:33:27.987Z,24.8
2017-07-09T08:34:36.081Z,24.7
2017-07-09T08:35:44.167Z,24.8
2017-07-09T08:36:52.257Z,24.7
2017-07-09T08:38:00.346Z,24.9
2017-07-09T08:39:08.436Z,24.8
2017-07-09T08:40:16.530Z,24.8
2017-07-09T08:41:24.618Z,24.8
2017-07-09T08:42:32.705Z,24.9
2017-07-09T08:43:40.794Z,24.8
2017-07-09T08:44:48.884Z,24.9
2017-07-09T08:45:56.976Z,24.9
2017-07-09T08:47:05.063Z,24.8
2017-07-09T08:48:13.155Z,24.8
2017-07-09T08:49:21.244Z,24.8
2017-07-09T08:50:29.334Z,24.8
2017-07-09T08:51:37.424Z,24.8
2017-07-09T08:52:45.539Z,24.8
2017-07-09T08:53:53.602Z,24.9
2017-07-09T08:55:01.694Z,24.9
2017-07-09T08:56:09.783Z,24.9
2017-07-09T08:57:17.873Z,24.9
2017-07-09T08:58:25.964Z,24.9
2017-07-09T08:59:34.054Z,24.9
2017-07-09T09:00:42.144Z,24.9
2017-07-09T09:01:50.241Z,24.9
2017-07-09T09:02:58.330Z,24.9
2017-07-09T09:04:06.428Z,24.9
2017-07-09T09:05:14.508Z,24.9
2017-07-09T09:06:22.601Z,24.9
2017-07-09T09:07:30.690Z,24.9
2017-07-09T09:08:38.781Z,24.9
2017-07-09T09:09:46.872Z,25.0
2017-07-09T09:10:54.961Z,25.0
2017-07-09T09:12:03.048Z,24.9
2017-07-09T09:13:11.140Z,25.0
2017-07-09T09:14:19.231Z,25.0
2017-07-09T09:15:27.319Z,25.0
2017-07-09T09:16:35.411Z,25.0
2017-07-09T09:17:43.500Z,24.9
2017-07-09T09:18:51.616Z,24.9
2017-07-09T09:19:59.681Z,25.0
2017-07-09T09:21:07.773Z,25.0
2017-07-09T09:22:15.864Z,25.0
2017-07-09T09:23:23.954Z,24.9
2017-07-09T09:24:32.043Z,25.0
2017-07-09T09:25:40.134Z,25.0
2017-07-09T09:26:48.228Z,25.1
2017-07-09T09:27:56.313Z,25.0
2017-07-09T09:29:04.409Z,25.1
2017-07-09T09:30:12.498Z,25.1
2017-07-09T09:31:20.589Z,25.1
2017-07-09T09:32:28.676Z,25.1
2017-07-09T09:33:36.768Z,25.1
2017-07-09T09:34:44.860Z,25.1
2017-07-09T09:35:52.950Z,25.1
2017-07-09T09:37:01.045Z,25.1
2017-07-09T09:38:09.133Z,25.1
2017-07-09T09:39:17.228Z,25.1
2017-07-09T09:40:25.319Z,25.1
2017-07-09T09:41:33.407Z,25.1
2017-07-09T09:42:41.499Z,25.1
2017-07-09T09:43:49.589Z,25.1
2017-07-09T09:44:57.680Z,25.1
2017-07-09T09:46:05.769Z,25.1
2017-07-09T09:47:13.858Z,25.1
2017-07-09T09:48:21.956Z,25.1
2017-07-09T09:49:30.047Z,25.1
2017-07-09T09:50:38.134Z,25.1
2017-07-09T09:51:46.227Z,25.1
2017-07-09T09:52:54.323Z,25.2
2017-07-09T09:54:02.407Z,25.1
2017-07-09T09:55:10.496Z,25.2
2017-07-09T09:56:18.584Z,25.2
2017-07-09T09:57:26.674Z,25.2
2017-07-09T09:58:34.765Z,25.2
2017-07-09T09:59:42.854Z,25.2
2017-07-09T10:00:50.946Z,25.1
2017-07-09T10:01:59.037Z,25.1
2017-07-09T10:03:07.129Z,25.1
2017-07-09T10:04:15.218Z,25.1
2017-07-09T10:05:23.308Z,25.2
2017-07-09T10:06:31.397Z,25.2
2017-07-09T10:07:39.492Z,25.2
2017-07-09T10:08:47.583Z,25.2
2017-07-09T10:09:55.673Z,25.3
2017-07-09T10:11:03.764Z,25.2
2017-07-09T10:12:11.853Z,25.2
2017-07-09T10:13:19.951Z,25.2
2017-07-09T10:14:28.034Z,25.3
2017-07-09T10:15:36.123Z,25.3
2017-07-09T10:16:44.215Z,25.2
2017-07-09T10:17:52.306Z,25.3
2017-07-09T10:19:00.397Z,25.2
2017-07-09T10:20:08.486Z,25.2
2017-07-09T10:21:16.575Z,25.3
2017-07-09T10:22:24.666Z,25.4
2017-07-09T10:23:32.763Z,25.3
2017-07-09T10:24:40.859Z,25.3
2017-07-09T10:25:48.951Z,25.3
2017-07-09T10:26:57.064Z,25.3
2017-07-09T10:28:05.130Z,25.3
2017-07-09T10:29:13.223Z,25.3
2017-07-09T10:30:21.312Z,25.2
2017-07-09T10:31:29.401Z,25.4
2017-07-09T10:32:37.492Z,25.3
2017-07-09T10:33:45.581Z,25.4
2017-07-09T10:34:53.675Z,25.3
2017-07-09T10:36:01.763Z,25.4
2017-07-09T10:37:09.859Z,25.3
2017-07-09T10:38:17.944Z,25.4
2017-07-09T10:39:26.036Z,25.3
2017-07-09T10:40:34.130Z,25.3
2017-07-09T10:41:42.219Z,25.3
2017-07-09T10:42:50.336Z,25.4
2017-07-09T10:43:58.400Z,25.4
2017-07-09T10:45:06.494Z,25.3
2017-07-09T10:46:14.584Z,25.3
2017-07-09T10:47:22.674Z,25.4
2017-07-09T10:48:30.762Z,25.4
2017-07-09T10:49:38.853Z,25.4
2017-07-09T10:50:46.943Z,25.4
2017-07-09T10:51:55.033Z,25.4
2017-07-09T10:53:03.124Z,25.3
2017-07-09T10:54:11.215Z,25.4
2017-07-09T10:55:19.305Z,25.4
2017-07-09T10:56:27.392Z,25.3
2017-07-09T10:57:35.486Z,25.4
2017-07-09T10:58:43.577Z,25.4
2017-07-09T10:59:51.667Z,25.4
2017-07-09T11:00:59.756Z,25.4
2017-07-09T11:02:07.847Z,25.3
2017-07-09T11:03:15.937Z,25.3
2017-07-09T11:04:24.027Z,25.4
2017-07-09T11:05:32.117Z,25.4
2017-07-09T11:06:40.208Z,25.4
2017-07-09T11:07:48.305Z,25.4
2017-07-09T11:08:56.386Z,25.3
2017-07-09T11:10:04.479Z,25.4
2017-07-09T11:11:12.569Z,25.4
2017-07-09T11:12:20.659Z,25.4
2017-07-09T11:13:28.750Z,25.5
2017-07-09T11:14:36.839Z,25.5
2017-07-09T11:15:44.990Z,25.4
2017-07-09T11:16:53.028Z,25.4
2017-07-09T11:18:01.115Z,25.4
2017-07-09T11:19:09.204Z,25.5
2017-07-09T11:20:17.297Z,25.4
2017-07-09T11:21:25.387Z,25.5
2017-07-09T11:22:33.477Z,25.4
2017-07-09T11:23:41.567Z,25.4
2017-07-09T11:24:49.657Z,25.5
2017-07-09T11:25:57.814Z,25.4
2017-07-09T11:27:05.846Z,25.5
2017-07-09T11:28:13.929Z,25.4
2017-07-09T11:29:22.019Z,25.5
2017-07-09T11:30:30.109Z,25.4
2017-07-09T11:31:38.201Z,25.5
2017-07-09T11:32:46.291Z,25.4
2017-07-09T11:33:54.382Z,25.4
2017-07-09T11:35:02.472Z,25.5
2017-07-09T11:36:10.563Z,25.5
2017-07-09T11:37:18.650Z,25.5
2017-07-09T11:38:26.742Z,25.5
2017-07-09T11:39:34.826Z,25.5
2017-07-09T11:40:42.923Z,25.5
2017-07-09T11:41:51.013Z,25.5
2017-07-09T11:42:59.143Z,25.5
2017-07-09T11:44:07.194Z,25.4
2017-07-09T11:45:15.287Z,25.5
2017-07-09T11:46:23.376Z,25.5
2017-07-09T11:47:31.464Z,25.4
2017-07-09T11:48:39.554Z,25.5
2017-07-09T11:49:47.646Z,25.4
2017-07-09T11:50:55.737Z,25.5
2017-07-09T11:52:03.826Z,25.5
2017-07-09T11:53:11.917Z,25.5
2017-07-09T11:54:20.009Z,25.5
2017-07-09T11:55:28.105Z,25.5
2017-07-09T11:56:36.195Z,25.5
2017-07-09T11:57:44.286Z,25.6
2017-07-09T11:58:52.377Z,25.6
2017-07-09T12:00:00.467Z,25.6
2017-07-09T12:01:08.556Z,25.5
2017-07-09T12:02:16.647Z,25.5
2017-07-09T12:03:24.743Z,25.6
2017-07-09T12:04:32.833Z,25.6
2017-07-09T12:05:40.924Z,25.6
2017-07-09T12:06:49.014Z,25.5
2017-07-09T12:07:57.103Z,25.6
2017-07-09T12:09:05.194Z,25.6
2017-07-09T12:10:13.285Z,25.6
2017-07-09T12:11:21.373Z,25.6
2017-07-09T12:12:29.466Z,25.6
2017-07-09T12:13:37.558Z,25.6
2017-07-09T12:14:45.646Z,25.6
2017-07-09T12:15:53.736Z,25.6
2017-07-09T12:17:01.826Z,25.6
2017-07-09T12:18:09.919Z,25.6
2017-07-09T12:19:18.005Z,25.5
2017-07-09T12:20:26.099Z,25.6
2017-07-09T12:21:34.187Z,25.6
2017-07-09T12:22:42.281Z,25.6
2017-07-09T12:23:50.370Z,25.6
2017-07-09T12:24:58.464Z,25.6
2017-07-09T12:26:06.549Z,25.6
2017-07-09T12:27:14.642Z,25.5
2017-07-09T12:28:22.734Z,25.6
2017-07-09T12:29:30.824Z,25.6
2017-07-09T12:30:38.913Z,25.6
2017-07-09T12:31:47.004Z,25.6
2017-07-09T12:32:55.096Z,25.6
2017-07-09T12:34:03.183Z,25.6
2017-07-09T12:35:11.272Z,25.6
2017-07-09T12:36:19.395Z,25.6
2017-07-09T12:37:27.462Z,25.6
2017-07-09T12:38:35.553Z,25.6
2017-07-09T12:39:43.644Z,25.7
2017-07-09T12:40:51.739Z,25.6
2017-07-09T12:41:59.824Z,25.6
2017-07-09T12:43:07.914Z,25.7
2017-07-09T12:44:16.006Z,25.7
2017-07-09T12:45:24.096Z,25.6
2017-07-09T12:46:32.186Z,25.7
2017-07-09T12:47:40.277Z,25.7
2017-07-09T12:48:48.370Z,25.7
2017-07-09T12:49:56.473Z,25.7
2017-07-09T12:51:04.550Z,25.7
2017-07-09T12:52:12.641Z,25.7
2017-07-09T12:53:20.736Z,25.7
2017-07-09T12:54:28.827Z,25.7
2017-07-09T12:55:36.919Z,25.7
2017-07-09T12:56:45.012Z,25.7
2017-07-09T12:57:53.111Z,25.7
2017-07-09T12:59:01.191Z,25.7
2017-07-09T13:00:09.281Z,25.7
2017-07-09T13:01:17.370Z,25.7
2017-07-09T13:02:25.460Z,25.7
2017-07-09T13:03:33.550Z,25.7
2017-07-09T13:04:41.645Z,25.7
2017-07-09T13:05:49.733Z,25.7
2017-07-09T13:06:57.822Z,25.7
2017-07-09T13:08:05.914Z,25.7
2017-07-09T13:09:14.006Z,25.7
2017-07-09T13:10:22.097Z,25.7
2017-07-09T13:11:30.210Z,25.8
2017-07-09T13:12:38.277Z,25.8
2017-07-09T13:13:46.426Z,25.7
2017-07-09T13:14:54.458Z,25.8
2017-07-09T13:16:02.549Z,25.7
2017-07-09T13:17:10.640Z,25.8
2017-07-09T13:18:18.732Z,25.7
2017-07-09T13:19:26.817Z,25.7
2017-07-09T13:20:34.991Z,25.8
2017-07-09T13:21:43.001Z,25.8
2017-07-09T13:22:51.092Z,25.7
2017-07-09T13:23:59.182Z,25.8
2017-07-09T13:25:07.273Z,25.8
2017-07-09T13:26:15.366Z,25.8
2017-07-09T13:27:23.454Z,25.8
2017-07-09T13:28:31.546Z,25.8
2017-07-09T13:29:39.640Z,25.7
2017-07-09T13:30:47.732Z,25.8
2017-07-09T13:31:55.845Z,25.9
2017-07-09T13:33:03.910Z,25.8
2017-07-09T13:34:12.003Z,25.8
2017-07-09T13:35:20.091Z,25.8
2017-07-09T13:36:28.181Z,25.7
2017-07-09T13:37:36.276Z,25.8
2017-07-09T13:38:44.363Z,25.9
2017-07-09T13:39:52.457Z,25.8
2017-07-09T13:41:00.544Z,25.7
2017-07-09T13:42:08.633Z,25.7
2017-07-09T13:43:16.725Z,25.8
2017-07-09T13:44:24.816Z,25.8
2017-07-09T13:45:32.908Z,25.7
2017-07-09T13:46:40.999Z,25.9
2017-07-09T13:47:49.089Z,25.7
2017-07-09T13:48:57.178Z,25.9
2017-07-09T13:50:05.270Z,25.8
2017-07-09T13:51:13.360Z,25.8
2017-07-09T13:52:21.451Z,25.8
2017-07-09T13:53:29.540Z,25.7
2017-07-09T13:54:37.645Z,25.8
2017-07-09T13:55:45.731Z,25.9
2017-07-09T13:56:53.820Z,25.8
2017-07-09T13:58:01.911Z,25.8
2017-07-09T13:59:10.003Z,25.9
2017-07-09T14:00:18.093Z,25.8
2017-07-09T14:01:26.182Z,25.8
2017-07-09T14:02:34.271Z,25.8
2017-07-09T14:03:42.365Z,25.9
2017-07-09T14:04:50.457Z,25.8
2017-07-09T14:05:58.546Z,25.9
2017-07-09T14:07:06.641Z,25.9
2017-07-09T14:08:14.732Z,25.9
2017-07-09T14:09:22.821Z,25.9
2017-07-09T14:10:30.914Z,25.8
2017-07-09T14:11:39.035Z,25.9
2017-07-09T14:12:47.096Z,25.9
2017-07-09T14:13:55.186Z,25.9
2017-07-09T14:15:03.276Z,25.9
2017-07-09T14:16:11.367Z,25.8
2017-07-09T14:17:19.458Z,25.9
2017-07-09T14:18:27.550Z,25.9
2017-07-09T14:19:35.634Z,25.9
2017-07-09T14:20:43.732Z,25.9
2017-07-09T14:21:51.827Z,25.9
2017-07-09T14:23:00.011Z,26.0
2017-07-09T14:24:08.008Z,25.9
2017-07-09T14:25:16.176Z,25.9
2017-07-09T14:26:24.189Z,25.9
2017-07-09T14:27:32.372Z,25.9
2017-07-09T14:28:40.547Z,25.9
2017-07-09T14:29:48.573Z,25.9
2017-07-09T14:30:56.560Z,25.9
2017-07-09T14:32:04.648Z,25.9
2017-07-09T14:33:12.828Z,25.9
2017-07-09T14:34:20.923Z,25.8
2017-07-09T14:35:28.995Z,25.9
2017-07-09T14:36:37.012Z,25.9
2017-07-09T14:37:45.102Z,25.8
2017-07-09T14:38:53.282Z,25.9
2017-07-09T14:40:01.383Z,25.9
2017-07-09T14:41:09.375Z,25.9
2017-07-09T14:42:17.464Z,25.9
2017-07-09T14:43:25.555Z,25.8
2017-07-09T14:44:33.644Z,25.9
2017-07-09T14:45:41.809Z,25.9
2017-07-09T14:46:49.826Z,25.8
2017-07-09T14:47:57.919Z,25.9
2017-07-09T14:49:06.011Z,25.9
2017-07-09T14:50:14.099Z,25.9
2017-07-09T14:51:22.189Z,25.9
2017-07-09T14:52:30.279Z,25.9
2017-07-09T14:53:38.369Z,25.9
2017-07-09T14:54:46.460Z,25.9
2017-07-09T14:55:54.552Z,25.9
2017-07-09T14:57:02.643Z,25.9
2017-07-09T14:58:10.732Z,25.9
2017-07-09T14:59:19.022Z,25.9
2017-07-09T15:00:26.916Z,25.9
2017-07-09T15:01:35.005Z,25.9
2017-07-09T15:02:43.142Z,25.8
2017-07-09T15:03:51.188Z,25.9
2017-07-09T15:04:59.278Z,25.9
2017-07-09T15:06:07.369Z,25.9